createdAt,value
2018-04-28T00:00:10.266Z,11.11
2018-04-28T00:01:15.542Z,11.07
2018-04-28T00:02:20.055Z,10.95
2018-04-28T00:03:24.229Z,10.88
2018-04-28T00:04:28.388Z,10.85
2018-04-28T00:05:32.652Z,10.86
2018-04-28T00:06:36.791Z,10.88
2018-04-28T00:07:41.045Z,10.95
2018-04-28T00:08:45.618Z,10.95
2018-04-28T00:09:49.855Z,10.92
2018-04-28T00:10:54.185Z,10.85
2018-04-28T00:11:58.358Z,10.87
2018-04-28T00:13:02.596Z,10.92
2018-04-28T00:14:06.804Z,10.89
2018-04-28T00:15:12.889Z,10.86
2018-04-28T00:16:17.340Z,10.98
2018-04-28T00:17:21.628Z,11.02
2018-04-28T00:18:26.052Z,10.96
2018-04-28T00:19:30.408Z,10.95
2018-04-28T00:20:34.631Z,10.86
2018-04-28T00:21:39.227Z,10.87
2018-04-28T00:22:43.408Z,10.85
2018-04-28T00:23:47.823Z,10.95
2018-04-28T00:24:52.056Z,10.96
2018-04-28T00:25:56.697Z,10.97
2018-04-28T00:27:05.040Z,10.95
2018-04-28T00:28:09.630Z,10.97
2018-04-28T00:29:14.347Z,11.03
2018-04-28T00:30:19.077Z,11.08
2018-04-28T00:31:23.585Z,11.09
2018-04-28T00:32:27.791Z,11.06
2018-04-28T00:33:31.957Z,11.00
2018-04-28T00:34:36.352Z,11.05
2018-04-28T00:35:40.564Z,11.08
2018-04-28T00:36:44.923Z,11.17
2018-04-28T00:37:49.680Z,11.20
2018-04-28T00:38:53.941Z,11.18
2018-04-28T00:39:59.019Z,11.11
2018-04-28T00:41:04.263Z,10.99
2018-04-28T00:42:08.456Z,11.01
2018-04-28T00:43:13.265Z,11.10
2018-04-28T00:44:17.953Z,11.12
2018-04-28T00:45:22.996Z,11.16
2018-04-28T00:46:27.238Z,11.08
2018-04-28T00:47:31.426Z,11.01
2018-04-28T00:48:35.823Z,10.92
2018-04-28T00:49:40.071Z,10.91
2018-04-28T00:50:44.833Z,10.95
2018-04-28T00:51:49.191Z,10.85
2018-04-28T00:52:53.509Z,10.87
2018-04-28T00:53:58.384Z,10.85
2018-04-28T00:55:02.589Z,10.82
2018-04-28T00:56:07.291Z,10.87
2018-04-28T00:57:14.621Z,10.79
2018-04-28T00:58:18.881Z,10.75
2018-04-28T00:59:23.149Z,10.77
2018-04-28T01:00:28.082Z,10.75
2018-04-28T01:01:33.913Z,10.72
2018-04-28T01:02:38.213Z,10.81
2018-04-28T01:03:42.513Z,10.88
2018-04-28T01:04:46.864Z,10.87
2018-04-28T01:05:51.228Z,10.82
2018-04-28T01:06:55.363Z,10.87
2018-04-28T01:07:59.921Z,10.80
2018-04-28T01:09:06.265Z,10.73
2018-04-28T01:10:10.871Z,10.66
2018-04-28T01:11:15.229Z,10.61
2018-04-28T01:12:19.386Z,10.62
2018-04-28T01:13:23.588Z,10.66
2018-04-28T01:14:30.099Z,10.65
2018-04-28T01:15:35.291Z,10.65
2018-04-28T01:16:39.949Z,10.59
2018-04-28T01:17:44.209Z,10.52
2018-04-28T01:18:48.991Z,10.52
2018-04-28T01:19:53.581Z,10.60
2018-04-28T01:21:01.745Z,10.60
2018-04-28T01:22:06.209Z,10.61
2018-04-28T01:23:10.481Z,10.64
2018-04-28T01:24:15.598Z,10.57
2018-04-28T01:25:19.864Z,10.55
2018-04-28T01:26:24.105Z,10.61
2018-04-28T01:27:28.459Z,10.67
2018-04-28T01:28:36.919Z,10.78
2018-04-28T01:29:49.826Z,10.87
2018-04-28T01:30:55.387Z,10.76
2018-04-28T01:32:00.177Z,10.52
2018-04-28T01:33:05.606Z,10.28
2018-04-28T01:34:10.224Z,10.20
2018-04-28T01:35:14.887Z,10.15
2018-04-28T01:36:19.125Z,10.14
2018-04-28T01:37:23.366Z,10.04
2018-04-28T01:38:27.791Z,9.94
2018-04-28T01:39:32.241Z,9.88
2018-04-28T01:40:36.447Z,9.76
2018-04-28T01:41:41.046Z,9.75
2018-04-28T01:42:45.456Z,9.84
2018-04-28T01:43:49.987Z,9.88
2018-04-28T01:44:54.341Z,10.05
2018-04-28T01:45:59.187Z,10.04
2018-04-28T01:47:03.764Z,10.08
2018-04-28T01:48:08.271Z,10.11
2018-04-28T01:49:12.626Z,9.97
2018-04-28T01:50:17.153Z,9.90
2018-04-28T01:51:21.314Z,10.00
2018-04-28T01:52:25.593Z,10.05
2018-04-28T01:53:30.103Z,9.94
2018-04-28T01:54:34.725Z,9.98
2018-04-28T01:55:39.037Z,10.01
2018-04-28T01:56:43.199Z,10.05
2018-04-28T01:57:47.873Z,10.14
2018-04-28T01:58:52.321Z,10.16
2018-04-28T01:59:57.051Z,10.15
2018-04-28T02:01:01.630Z,10.03
2018-04-28T02:02:07.044Z,10.05
2018-04-28T02:03:11.382Z,9.96
2018-04-28T02:04:15.997Z,9.88
2018-04-28T02:05:22.042Z,9.74
2018-04-28T02:06:27.048Z,9.69
2018-04-28T02:07:31.538Z,9.53
2018-04-28T02:08:36.060Z,9.43
2018-04-28T02:09:40.642Z,9.41
2018-04-28T02:10:45.357Z,9.33
2018-04-28T02:11:49.630Z,9.29
2018-04-28T02:12:58.391Z,9.24
2018-04-28T02:14:02.848Z,9.23
2018-04-28T02:15:07.652Z,9.23
2018-04-28T02:16:12.318Z,9.23
2018-04-28T02:17:17.369Z,9.20
2018-04-28T02:18:22.952Z,9.29
2018-04-28T02:19:28.161Z,9.39
2018-04-28T02:20:32.564Z,9.27
2018-04-28T02:21:36.883Z,9.28
2018-04-28T02:22:41.107Z,9.22
2018-04-28T02:23:45.696Z,9.25
2018-04-28T02:24:50.849Z,9.43
2018-04-28T02:25:55.141Z,9.53
2018-04-28T02:26:59.453Z,9.65
2018-04-28T02:28:05.314Z,9.59
2018-04-28T02:29:09.640Z,9.56
2018-04-28T02:30:16.180Z,9.48
2018-04-28T02:31:22.518Z,9.25
2018-04-28T02:32:26.740Z,9.11
2018-04-28T02:33:30.940Z,9.00
2018-04-28T02:34:35.231Z,8.83
2018-04-28T02:35:39.457Z,8.72
2018-04-28T02:36:44.321Z,8.65
2018-04-28T02:37:49.048Z,8.71
2018-04-28T02:38:53.222Z,8.67
2018-04-28T02:39:58.312Z,8.59
2018-04-28T02:41:03.556Z,8.82
2018-04-28T02:42:07.917Z,8.84
2018-04-28T02:43:12.393Z,8.83
2018-04-28T02:44:20.998Z,8.73
2018-04-28T02:45:25.742Z,8.71
2018-04-28T02:46:30.435Z,8.67
2018-04-28T02:47:35.518Z,8.72
2018-04-28T02:48:45.568Z,8.74
2018-04-28T02:49:50.187Z,8.88
2018-04-28T02:50:54.774Z,9.03
2018-04-28T02:51:59.026Z,8.96
2018-04-28T02:53:08.133Z,8.93
2018-04-28T02:54:14.398Z,9.07
2018-04-28T02:55:18.866Z,9.17
2018-04-28T02:56:23.133Z,9.21
2018-04-28T02:57:27.792Z,9.07
2018-04-28T02:58:32.068Z,8.92
2018-04-28T02:59:36.690Z,8.93
2018-04-28T03:00:41.824Z,8.80
2018-04-28T03:01:46.245Z,8.84
2018-04-28T03:02:50.602Z,8.93
2018-04-28T03:03:55.046Z,8.95
2018-04-28T03:04:59.205Z,8.96
2018-04-28T03:06:03.593Z,9.00
2018-04-28T03:07:09.382Z,8.98
2018-04-28T03:08:14.752Z,8.94
2018-04-28T03:09:19.009Z,8.95
2018-04-28T03:10:23.884Z,8.92
2018-04-28T03:11:32.087Z,8.99
2018-04-28T03:12:36.518Z,8.91
2018-04-28T03:13:40.760Z,8.86
2018-04-28T03:14:45.045Z,8.89
2018-04-28T03:17:08.554Z,8.95
2018-04-28T03:18:12.823Z,8.85
2018-04-28T03:19:17.706Z,8.81
2018-04-28T03:20:21.903Z,8.71
2018-04-28T03:21:26.098Z,8.62
2018-04-28T03:22:30.508Z,8.56
2018-04-28T03:23:34.784Z,8.50
2018-04-28T03:24:39.001Z,8.55
2018-04-28T03:25:43.800Z,8.51
2018-04-28T03:26:48.257Z,8.51
2018-04-28T03:27:52.457Z,8.50
2018-04-28T03:28:57.101Z,8.65
2018-04-28T03:30:01.259Z,8.60
2018-04-28T03:31:06.139Z,8.65
2018-04-28T03:32:10.357Z,8.67
2018-04-28T03:33:15.093Z,8.68
2018-04-28T03:34:19.478Z,8.88
2018-04-28T03:35:23.817Z,8.95
2018-04-28T03:36:28.086Z,8.89
2018-04-28T03:37:32.600Z,8.82
2018-04-28T03:38:39.062Z,8.86
2018-04-28T03:39:43.958Z,8.88
2018-04-28T03:40:48.657Z,8.87
2018-04-28T03:41:52.929Z,8.97
2018-04-28T03:42:57.225Z,8.94
2018-04-28T03:44:02.014Z,8.97
2018-04-28T03:45:07.307Z,9.01
2018-04-28T03:46:11.892Z,9.18
2018-04-28T03:47:16.771Z,9.43
2018-04-28T03:48:21.487Z,9.61
2018-04-28T03:49:26.738Z,9.68
2018-04-28T03:50:31.945Z,9.76
2018-04-28T03:51:36.724Z,9.80
2018-04-28T03:52:44.521Z,9.84
2018-04-28T03:54:52.061Z,9.97
2018-04-28T03:55:56.572Z,10.03
2018-04-28T03:57:01.171Z,10.09
2018-04-28T03:58:16.151Z,10.09
2018-04-28T04:01:38.161Z,10.09
2018-04-28T04:03:19.393Z,10.11
2018-04-28T04:04:24.123Z,10.08
2018-04-28T04:05:28.577Z,10.05
2018-04-28T04:06:33.157Z,10.00
2018-04-28T04:07:37.433Z,9.82
2018-04-28T04:08:41.663Z,9.77
2018-04-28T04:09:46.058Z,9.83
2018-04-28T04:10:50.675Z,9.85
2018-04-28T04:11:54.945Z,9.96
2018-04-28T04:12:59.468Z,10.04
2018-04-28T04:14:04.728Z,10.08
2018-04-28T04:15:09.476Z,10.12
2018-04-28T04:16:15.001Z,10.13
2018-04-28T04:17:19.199Z,10.15
2018-04-28T04:18:27.909Z,10.17
2018-04-28T04:19:36.574Z,10.19
2018-04-28T04:20:41.105Z,10.21
2018-04-28T04:21:45.569Z,10.24
2018-04-28T04:22:49.971Z,10.26
2018-04-28T04:23:59.869Z,10.29
2018-04-28T04:25:04.095Z,10.28
2018-04-28T04:26:08.361Z,10.25
2018-04-28T04:27:12.949Z,10.27
2018-04-28T04:28:17.263Z,10.29
2018-04-28T04:29:21.497Z,10.40
2018-04-28T04:30:26.473Z,10.43
2018-04-28T04:31:30.985Z,10.42
2018-04-28T04:32:35.271Z,10.42
2018-04-28T04:33:39.597Z,10.44
2018-04-28T04:34:44.136Z,10.43
2018-04-28T04:35:48.839Z,10.44
2018-04-28T04:36:53.112Z,10.39
2018-04-28T04:37:57.332Z,10.33
2018-04-28T04:39:01.849Z,10.38
2018-04-28T04:40:06.111Z,10.35
2018-04-28T04:41:10.499Z,10.40
2018-04-28T04:42:15.645Z,10.40
2018-04-28T04:43:19.816Z,10.40
2018-04-28T04:44:24.051Z,10.38
2018-04-28T04:45:28.595Z,10.35
2018-04-28T04:46:32.836Z,10.40
2018-04-28T04:47:37.137Z,10.39
2018-04-28T04:48:41.353Z,10.41
2018-04-28T04:49:45.633Z,10.46
2018-04-28T04:50:54.589Z,10.46
2018-04-28T04:51:59.834Z,10.44
2018-04-28T04:53:11.041Z,10.46
2018-04-28T04:54:16.176Z,10.46
2018-04-28T04:55:21.315Z,10.52
2018-04-28T04:56:29.069Z,10.57
2018-04-28T04:57:33.833Z,10.57
2018-04-28T04:58:38.190Z,10.55
2018-04-28T04:59:42.443Z,10.54
2018-04-28T05:00:48.456Z,10.62
2018-04-28T05:01:58.453Z,10.62
2018-04-28T05:03:03.145Z,10.64
2018-04-28T05:04:08.529Z,10.57
2018-04-28T05:05:13.152Z,10.49
2018-04-28T05:06:17.742Z,10.52
2018-04-28T05:07:21.995Z,10.56
2018-04-28T05:08:26.871Z,10.49
2018-04-28T05:09:31.273Z,10.39
2018-04-28T05:10:40.421Z,10.44
2018-04-28T05:11:44.961Z,10.45
2018-04-28T05:12:52.773Z,10.47
2018-04-28T05:13:57.419Z,10.54
2018-04-28T05:15:03.195Z,10.61
2018-04-28T05:16:08.119Z,10.54
2018-04-28T05:17:12.995Z,10.53
2018-04-28T05:18:25.927Z,10.64
2018-04-28T05:19:30.195Z,10.68
2018-04-28T05:20:34.553Z,10.72
2018-04-28T05:21:39.007Z,10.69
2018-04-28T05:22:43.951Z,10.67
2018-04-28T05:23:48.935Z,10.59
2018-04-28T05:24:53.353Z,10.60
2018-04-28T05:25:58.287Z,10.63
2018-04-28T05:27:02.767Z,10.61
2018-04-28T05:28:07.060Z,10.62
2018-04-28T05:29:13.149Z,10.62
2018-04-28T05:30:21.949Z,10.63
2018-04-28T05:31:26.453Z,10.56
2018-04-28T05:32:30.935Z,10.50
2018-04-28T05:33:36.491Z,10.53
2018-04-28T05:34:41.757Z,10.58
2018-04-28T05:35:48.021Z,10.62
2018-04-28T05:36:52.328Z,10.61
2018-04-28T05:37:57.110Z,10.46
2018-04-28T05:39:01.906Z,10.36
2018-04-28T05:40:07.259Z,10.29
2018-04-28T05:41:17.473Z,10.17
2018-04-28T05:42:29.585Z,10.16
2018-04-28T05:43:33.991Z,10.26
2018-04-28T05:44:38.841Z,10.16
2018-04-28T05:45:43.377Z,10.14
2018-04-28T05:46:48.287Z,10.31
2018-04-28T05:47:56.563Z,10.34
2018-04-28T05:49:01.142Z,10.40
2018-04-28T05:50:06.172Z,10.41
2018-04-28T05:51:10.988Z,10.42
2018-04-28T05:52:16.511Z,10.42
2018-04-28T05:53:22.087Z,10.50
2018-04-28T05:54:28.677Z,10.59
2018-04-28T05:55:33.035Z,10.66
2018-04-28T05:56:40.507Z,10.78
2018-04-28T05:57:46.177Z,10.79
2018-04-28T05:58:50.759Z,10.78
2018-04-28T05:59:55.591Z,10.78
2018-04-28T06:01:00.448Z,10.89
2018-04-28T06:02:05.180Z,11.01
2018-04-28T06:03:14.565Z,11.06
2018-04-28T06:04:27.394Z,11.10
2018-04-28T06:05:31.666Z,11.16
2018-04-28T06:06:36.639Z,11.11
2018-04-28T06:07:41.181Z,11.12
2018-04-28T06:08:46.302Z,11.23
2018-04-28T06:09:50.824Z,11.25
2018-04-28T06:10:55.898Z,11.25
2018-04-28T06:12:00.650Z,11.06
2018-04-28T06:13:07.504Z,11.08
2018-04-28T06:14:12.009Z,11.33
2018-04-28T06:15:17.200Z,11.52
2018-04-28T06:16:21.599Z,11.69
2018-04-28T06:17:26.313Z,11.64
2018-04-28T06:18:35.767Z,11.72
2018-04-28T06:19:41.409Z,11.85
2018-04-28T06:20:45.638Z,11.93
2018-04-28T06:21:49.904Z,11.87
2018-04-28T06:22:54.037Z,11.84
2018-04-28T06:23:58.486Z,11.80
2018-04-28T06:25:02.990Z,11.70
2018-04-28T06:26:07.154Z,11.64
2018-04-28T06:27:11.286Z,11.74
2018-04-28T06:28:16.025Z,11.74
2018-04-28T06:29:20.301Z,11.71
2018-04-28T06:30:24.886Z,11.73
2018-04-28T06:31:29.342Z,11.73
2018-04-28T06:32:33.551Z,11.73
2018-04-28T06:33:38.024Z,11.72
2018-04-28T06:34:43.831Z,11.52
2018-04-28T06:35:50.298Z,11.48
2018-04-28T06:36:56.513Z,11.51
2018-04-28T06:38:01.264Z,11.54
2018-04-28T06:39:07.483Z,11.52
2018-04-28T06:40:11.673Z,11.48
2018-04-28T06:41:15.922Z,11.68
2018-04-28T06:42:20.323Z,11.73
2018-04-28T06:43:27.485Z,11.91
2018-04-28T06:44:32.038Z,12.12
2018-04-28T06:45:36.581Z,12.48
2018-04-28T06:46:40.729Z,12.88
2018-04-28T06:47:45.286Z,13.06
2018-04-28T06:48:49.548Z,13.27
2018-04-28T06:49:53.679Z,13.49
2018-04-28T06:50:58.158Z,13.50
2018-04-28T06:52:02.402Z,13.44
2018-04-28T06:53:10.838Z,13.27
2018-04-28T06:54:15.367Z,13.21
2018-04-28T06:55:19.839Z,13.73
2018-04-28T06:56:24.191Z,14.15
2018-04-28T06:57:28.462Z,13.97
2018-04-28T06:58:32.641Z,13.79
2018-04-28T06:59:37.049Z,13.77
2018-04-28T07:00:41.583Z,14.03
2018-04-28T07:01:46.359Z,14.14
2018-04-28T07:02:50.531Z,13.95
2018-04-28T07:03:54.810Z,13.90
2018-04-28T07:05:00.866Z,14.01
2018-04-28T07:06:05.171Z,14.03
2018-04-28T07:07:09.456Z,13.96
2018-04-28T07:08:13.898Z,13.72
2018-04-28T07:09:18.533Z,13.66
2018-04-28T07:10:23.821Z,13.65
2018-04-28T07:11:28.064Z,13.85
2018-04-28T07:12:32.474Z,13.74
2018-04-28T07:13:36.981Z,13.72
2018-04-28T07:14:45.279Z,13.87
2018-04-28T07:15:49.977Z,13.92
2018-04-28T07:16:54.581Z,14.20
2018-04-28T07:17:59.110Z,14.51
2018-04-28T07:19:03.579Z,14.50
2018-04-28T07:20:08.141Z,14.37
2018-04-28T07:21:12.630Z,14.31
2018-04-28T07:22:18.361Z,14.19
2018-04-28T07:23:22.873Z,14.42
2018-04-28T07:24:27.731Z,14.50
2018-04-28T07:25:32.849Z,14.52
2018-04-28T07:26:37.087Z,14.96
2018-04-28T07:27:41.529Z,14.98
2018-04-28T07:28:46.006Z,15.07
2018-04-28T07:29:50.381Z,14.87
2018-04-28T07:30:54.915Z,14.80
2018-04-28T07:31:59.409Z,14.83
2018-04-28T07:33:03.582Z,15.00
2018-04-28T07:34:08.197Z,15.30
2018-04-28T07:35:12.394Z,15.39
2018-04-28T07:36:16.554Z,15.68
2018-04-28T07:37:22.254Z,15.67
2018-04-28T07:38:26.732Z,15.36
2018-04-28T07:39:30.933Z,15.50
2018-04-28T07:40:35.083Z,15.72
2018-04-28T07:41:39.343Z,15.69
2018-04-28T07:42:43.567Z,15.65
2018-04-28T07:43:47.760Z,15.51
2018-04-28T07:44:52.022Z,15.49
2018-04-28T07:45:56.800Z,15.50
2018-04-28T07:47:01.110Z,15.57
2018-04-28T07:48:05.559Z,15.58
2018-04-28T07:49:10.144Z,15.51
2018-04-28T07:50:15.667Z,15.50
2018-04-28T07:51:20.112Z,15.38
2018-04-28T07:52:24.563Z,15.45
2018-04-28T07:53:29.306Z,15.45
2018-04-28T07:54:33.565Z,15.55
2018-04-28T07:55:37.824Z,15.95
2018-04-28T07:56:42.022Z,16.03
2018-04-28T07:57:46.158Z,16.03
2018-04-28T07:58:50.610Z,16.19
2018-04-28T08:00:58.950Z,16.09
2018-04-28T08:02:03.234Z,16.10
2018-04-28T08:03:07.372Z,16.07
2018-04-28T08:04:11.515Z,15.92
2018-04-28T08:05:16.310Z,15.83
2018-04-28T08:06:20.626Z,15.83
2018-04-28T08:07:24.853Z,15.78
2018-04-28T08:08:29.660Z,16.17
2018-04-28T08:09:33.825Z,16.46
2018-04-28T08:10:38.077Z,16.67
2018-04-28T08:11:42.342Z,16.77
2018-04-28T08:12:46.512Z,16.86
2018-04-28T08:13:50.748Z,16.88
2018-04-28T08:14:54.893Z,17.07
2018-04-28T08:15:59.393Z,17.11
2018-04-28T08:17:04.006Z,17.25
2018-04-28T08:18:08.556Z,17.35
2018-04-28T08:19:12.735Z,17.57
2018-04-28T08:20:17.682Z,17.67
2018-04-28T08:21:21.944Z,17.56
2018-04-28T08:22:26.090Z,17.37
2018-04-28T08:23:30.541Z,16.99
2018-04-28T08:24:34.697Z,16.87
2018-04-28T08:25:38.961Z,17.08
2018-04-28T08:26:43.152Z,16.97
2018-04-28T08:27:47.347Z,16.66
2018-04-28T08:28:51.531Z,16.53
2018-04-28T08:29:55.781Z,16.41
2018-04-28T08:31:00.516Z,16.23
2018-04-28T08:32:04.916Z,15.99
2018-04-28T08:33:09.128Z,15.98
2018-04-28T08:34:13.292Z,15.93
2018-04-28T08:35:17.667Z,16.01
2018-04-28T08:36:21.875Z,16.40
2018-04-28T08:37:26.733Z,16.82
2018-04-28T08:38:30.985Z,17.21
2018-04-28T08:39:35.124Z,17.10
2018-04-28T08:40:39.294Z,17.05
2018-04-28T08:41:43.491Z,16.93
2018-04-28T08:42:47.627Z,16.86
2018-04-28T08:43:51.900Z,16.84
2018-04-28T08:44:56.390Z,16.63
2018-04-28T08:46:00.614Z,16.40
2018-04-28T08:47:04.864Z,16.40
2018-04-28T08:48:09.460Z,16.55
2018-04-28T08:49:13.625Z,16.38
2018-04-28T08:50:17.821Z,16.38
2018-04-28T08:51:22.054Z,16.42
2018-04-28T08:52:28.128Z,16.41
2018-04-28T08:53:32.285Z,16.57
2018-04-28T08:54:36.417Z,16.80
2018-04-28T08:55:40.649Z,17.13
2018-04-28T08:56:44.851Z,17.26
2018-04-28T08:57:48.989Z,17.26
2018-04-28T08:58:53.428Z,17.21
2018-04-28T09:01:00.398Z,16.99
2018-04-28T09:02:04.656Z,17.46
2018-04-28T09:03:08.911Z,17.97
2018-04-28T09:04:13.123Z,17.92
2018-04-28T09:05:18.450Z,17.68
2018-04-28T09:06:22.577Z,17.60
2018-04-28T09:07:27.496Z,17.78
2018-04-28T09:08:32.619Z,18.22
2018-04-28T09:09:36.789Z,17.97
2018-04-28T09:10:41.263Z,17.67
2018-04-28T09:11:45.395Z,17.53
2018-04-28T09:12:49.630Z,17.64
2018-04-28T09:13:53.795Z,17.64
2018-04-28T09:14:58.063Z,17.50
2018-04-28T09:16:03.145Z,17.24
2018-04-28T09:17:07.804Z,17.32
2018-04-28T09:18:11.951Z,17.40
2018-04-28T09:19:16.263Z,17.84
2018-04-28T09:20:21.179Z,17.93
2018-04-28T09:21:25.302Z,17.87
2018-04-28T09:22:30.206Z,17.83
2018-04-28T09:23:34.804Z,17.51
2018-04-28T09:24:39.020Z,17.24
2018-04-28T09:25:43.186Z,17.31
2018-04-28T09:26:47.348Z,17.30
2018-04-28T09:27:51.496Z,17.50
2018-04-28T09:28:55.641Z,17.67
2018-04-28T09:30:00.570Z,17.36
2018-04-28T09:31:05.186Z,17.32
2018-04-28T09:32:09.341Z,17.23
2018-04-28T09:33:13.545Z,17.27
2018-04-28T09:34:17.691Z,17.26
2018-04-28T09:35:23.060Z,17.33
2018-04-28T09:36:27.464Z,17.15
2018-04-28T09:37:32.714Z,17.34
2018-04-28T09:38:36.817Z,17.29
2018-04-28T09:39:40.962Z,17.07
2018-04-28T09:40:45.112Z,16.92
2018-04-28T09:41:49.583Z,17.03
2018-04-28T09:42:53.785Z,17.17
2018-04-28T09:43:57.914Z,17.11
2018-04-28T09:45:04.664Z,17.05
2018-04-28T09:46:09.168Z,17.21
2018-04-28T09:47:13.621Z,17.58
2018-04-28T09:48:17.748Z,17.63
2018-04-28T09:49:21.945Z,17.61
2018-04-28T09:50:26.302Z,17.59
2018-04-28T09:51:31.490Z,17.64
2018-04-28T09:52:35.606Z,17.60
2018-04-28T09:53:40.044Z,17.56
2018-04-28T09:54:44.190Z,17.47
2018-04-28T09:55:48.406Z,17.51
2018-04-28T09:56:52.538Z,17.50
2018-04-28T09:58:05.662Z,17.47
2018-04-28T09:59:09.843Z,17.61
2018-04-28T10:00:24.082Z,17.62
2018-04-28T10:01:28.994Z,17.61
2018-04-28T10:02:34.939Z,17.53
2018-04-28T10:03:39.170Z,17.55
2018-04-28T10:04:43.341Z,17.49
2018-04-28T10:05:47.565Z,17.25
2018-04-28T10:06:51.736Z,17.19
2018-04-28T10:07:55.912Z,17.47
2018-04-28T10:09:00.243Z,17.60
2018-04-28T10:10:04.592Z,17.62
2018-04-28T10:11:08.844Z,17.62
2018-04-28T10:12:12.984Z,17.75
2018-04-28T10:13:17.421Z,17.84
2018-04-28T10:14:22.626Z,17.77
2018-04-28T10:15:26.782Z,17.98
2018-04-28T10:16:31.931Z,18.03
2018-04-28T10:17:36.226Z,18.68
2018-04-28T10:18:40.497Z,19.48
2018-04-28T10:19:45.460Z,19.26
2018-04-28T10:20:50.034Z,19.08
2018-04-28T10:21:54.166Z,19.00
2018-04-28T10:22:58.340Z,18.61
2018-04-28T10:24:02.837Z,18.18
2018-04-28T10:25:07.084Z,17.80
2018-04-28T10:26:11.232Z,17.50
2018-04-28T10:27:15.476Z,17.29
2018-04-28T10:28:19.620Z,17.09
2018-04-28T10:29:24.693Z,17.02
2018-04-28T10:30:29.810Z,16.77
2018-04-28T10:31:33.935Z,16.52
2018-04-28T10:32:38.130Z,16.29
2018-04-28T10:33:42.388Z,16.24
2018-04-28T10:34:46.534Z,16.19
2018-04-28T10:35:50.783Z,16.23
2018-04-28T10:36:55.021Z,16.19
2018-04-28T10:37:59.160Z,16.12
2018-04-28T10:39:03.524Z,16.12
2018-04-28T10:40:07.681Z,16.25
2018-04-28T10:41:11.864Z,16.19
2018-04-28T10:42:16.116Z,16.19
2018-04-28T10:43:20.614Z,16.23
2018-04-28T10:44:24.761Z,16.06
2018-04-28T10:45:29.147Z,15.86
2018-04-28T10:46:33.890Z,15.67
2018-04-28T10:47:38.040Z,15.70
2018-04-28T10:48:42.244Z,15.69
2018-04-28T10:49:46.376Z,15.85
2018-04-28T10:50:50.511Z,15.83
2018-04-28T10:51:54.656Z,15.92
2018-04-28T10:52:58.777Z,16.10
2018-04-28T10:54:03.230Z,16.25
2018-04-28T10:55:08.032Z,16.19
2018-04-28T10:56:12.247Z,16.23
2018-04-28T10:57:16.506Z,16.24
2018-04-28T10:58:20.792Z,16.25
2018-04-28T10:59:25.016Z,16.06
2018-04-28T11:00:29.360Z,15.95
2018-04-28T11:01:34.639Z,15.99
2018-04-28T11:02:38.781Z,16.18
2018-04-28T11:03:43.029Z,16.26
2018-04-28T11:04:47.175Z,16.42
2018-04-28T11:05:51.474Z,16.62
2018-04-28T11:06:55.646Z,16.70
2018-04-28T11:07:59.782Z,16.80
2018-04-28T11:09:04.576Z,16.64
2018-04-28T11:10:08.845Z,16.58
2018-04-28T11:11:13.124Z,16.55
2018-04-28T11:12:17.278Z,16.51
2018-04-28T11:13:21.767Z,16.51
2018-04-28T11:14:25.878Z,16.51
2018-04-28T11:15:30.554Z,16.42
2018-04-28T11:16:35.659Z,16.43
2018-04-28T11:17:39.862Z,16.46
2018-04-28T11:18:44.185Z,16.64
2018-04-28T11:19:49.074Z,16.56
2018-04-28T11:20:53.362Z,16.51
2018-04-28T11:21:57.520Z,16.53
2018-04-28T11:23:01.687Z,16.69
2018-04-28T11:24:06.168Z,16.78
2018-04-28T11:25:10.318Z,16.76
2018-04-28T11:26:14.880Z,16.73
2018-04-28T11:27:19.010Z,16.83
2018-04-28T11:28:23.889Z,16.96
2018-04-28T11:29:28.030Z,17.07
2018-04-28T11:30:32.432Z,17.19
2018-04-28T11:31:37.704Z,17.26
2018-04-28T11:32:42.478Z,17.42
2018-04-28T11:33:46.625Z,17.71
2018-04-28T11:34:50.768Z,18.15
2018-04-28T11:35:54.869Z,18.56
2018-04-28T11:36:59.706Z,18.61
2018-04-28T11:38:03.878Z,18.59
2018-04-28T11:39:08.474Z,18.48
2018-04-28T11:40:13.111Z,18.25
2018-04-28T11:41:17.245Z,18.14
2018-04-28T11:42:21.374Z,18.14
2018-04-28T11:43:25.510Z,18.21
2018-04-28T11:44:29.752Z,18.41
2018-04-28T11:45:34.516Z,18.62
2018-04-28T11:46:38.867Z,18.59
2018-04-28T11:47:43.270Z,18.73
2018-04-28T11:48:47.906Z,18.62
2018-04-28T11:49:52.070Z,18.54
2018-04-28T11:50:56.279Z,18.49
2018-04-28T11:52:00.536Z,18.30
2018-04-28T11:53:04.749Z,18.12
2018-04-28T11:54:08.992Z,17.94
2018-04-28T11:55:13.236Z,17.72
2018-04-28T11:56:17.396Z,17.48
2018-04-28T11:57:22.463Z,17.41
2018-04-28T11:58:26.590Z,17.29
2018-04-28T11:59:30.922Z,17.20
2018-04-28T12:00:35.578Z,17.23
2018-04-28T12:01:40.970Z,17.07
2018-04-28T12:02:45.590Z,17.19
2018-04-28T12:03:50.053Z,17.24
2018-04-28T12:04:54.245Z,17.33
2018-04-28T12:05:58.392Z,17.42
2018-04-28T12:07:02.550Z,17.61
2018-04-28T12:08:06.806Z,17.69
2018-04-28T12:09:11.235Z,17.82
2018-04-28T12:10:15.730Z,17.89
2018-04-28T12:11:19.844Z,17.92
2018-04-28T12:12:24.006Z,18.06
2018-04-28T12:13:28.251Z,18.37
2018-04-28T12:14:32.446Z,18.73
2018-04-28T12:15:36.754Z,19.03
2018-04-28T12:16:41.607Z,19.11
2018-04-28T12:17:45.800Z,19.39
2018-04-28T12:18:49.926Z,19.78
2018-04-28T12:19:54.074Z,20.04
2018-04-28T12:20:58.227Z,20.35
2018-04-28T12:22:02.415Z,20.18
2018-04-28T12:23:06.657Z,19.91
2018-04-28T12:24:11.145Z,19.66
2018-04-28T12:25:15.547Z,19.06
2018-04-28T12:26:19.690Z,18.68
2018-04-28T12:27:24.659Z,18.63
2018-04-28T12:28:28.902Z,18.42
2018-04-28T12:29:33.064Z,18.38
2018-04-28T12:30:37.563Z,18.11
2018-04-28T12:31:41.730Z,17.66
2018-04-28T12:32:45.853Z,17.62
2018-04-28T12:33:49.997Z,17.60
2018-04-28T12:34:54.160Z,17.53
2018-04-28T12:35:58.684Z,17.24
2018-04-28T12:37:02.858Z,17.11
2018-04-28T12:38:07.131Z,17.11
2018-04-28T12:39:11.525Z,17.06
2018-04-28T12:40:15.689Z,17.09
2018-04-28T12:41:19.992Z,17.36
2018-04-28T12:42:24.145Z,17.73
2018-04-28T12:43:29.123Z,17.94
2018-04-28T12:44:33.258Z,17.99
2018-04-28T12:45:37.601Z,17.88
2018-04-28T12:46:42.375Z,17.53
2018-04-28T12:47:46.895Z,17.66
2018-04-28T12:48:51.056Z,17.85
2018-04-28T12:49:55.226Z,18.09
2018-04-28T12:50:59.461Z,18.25
2018-04-28T12:52:03.691Z,18.41
2018-04-28T12:53:08.036Z,18.36
2018-04-28T12:54:12.483Z,18.10
2018-04-28T12:55:16.804Z,18.05
2018-04-28T12:56:21.322Z,18.05
2018-04-28T12:57:25.488Z,17.95
2018-04-28T12:58:29.611Z,17.92
2018-04-28T12:59:33.882Z,17.66
2018-04-28T13:00:38.054Z,17.50
2018-04-28T13:01:42.955Z,17.60
2018-04-28T13:02:47.206Z,17.61
2018-04-28T13:03:51.377Z,17.63
2018-04-28T13:04:55.933Z,17.83
2018-04-28T13:06:00.156Z,18.09
2018-04-28T13:07:04.377Z,18.24
2018-04-28T13:08:08.572Z,18.46
2018-04-28T13:09:13.146Z,18.82
2018-04-28T13:10:17.357Z,19.53
2018-04-28T13:11:21.838Z,19.81
2018-04-28T13:12:26.106Z,20.06
2018-04-28T13:13:30.273Z,20.34
2018-04-28T13:14:34.461Z,20.44
2018-04-28T13:15:38.672Z,20.09
2018-04-28T13:16:42.925Z,19.82
2018-04-28T13:17:47.547Z,19.77
2018-04-28T13:18:52.022Z,19.68
2018-04-28T13:19:56.444Z,19.77
2018-04-28T13:21:00.759Z,19.68
2018-04-28T13:22:05.085Z,19.89
2018-04-28T13:23:09.348Z,19.79
2018-04-28T13:24:14.153Z,19.71
2018-04-28T13:25:18.323Z,19.65
2018-04-28T13:26:22.516Z,19.89
2018-04-28T13:27:26.655Z,20.02
2018-04-28T13:28:30.896Z,19.69
2018-04-28T13:29:35.643Z,19.50
2018-04-28T13:30:39.822Z,19.16
2018-04-28T13:31:45.491Z,19.16
2018-04-28T13:32:49.687Z,19.02
2018-04-28T13:33:53.934Z,19.69
2018-04-28T13:34:58.088Z,19.58
2018-04-28T13:36:02.625Z,19.60
2018-04-28T13:37:06.933Z,19.55
2018-04-28T13:38:11.499Z,19.60
2018-04-28T13:39:15.997Z,19.74
2018-04-28T13:40:20.183Z,19.93
2018-04-28T13:41:24.323Z,19.92
2018-04-28T13:42:28.889Z,19.74
2018-04-28T13:43:33.936Z,19.51
2018-04-28T13:44:38.145Z,19.25
2018-04-28T13:45:42.516Z,19.14
2018-04-28T13:46:46.673Z,18.97
2018-04-28T13:47:50.796Z,19.14
2018-04-28T13:48:55.717Z,19.06
2018-04-28T13:49:59.869Z,18.88
2018-04-28T13:51:04.100Z,18.91
2018-04-28T13:52:08.289Z,19.03
2018-04-28T13:53:12.786Z,19.07
2018-04-28T13:54:17.108Z,18.82
2018-04-28T13:55:21.349Z,18.94
2018-04-28T13:56:25.493Z,18.93
2018-04-28T13:57:29.886Z,19.08
2018-04-28T13:58:35.008Z,18.98
2018-04-28T13:59:39.166Z,19.14
2018-04-28T14:00:43.862Z,19.42
2018-04-28T14:01:48.158Z,19.35
2018-04-28T14:02:52.333Z,18.72
2018-04-28T14:03:57.257Z,18.35
2018-04-28T14:05:01.421Z,18.17